.
WxDataArchive / Data Records for 2010-10-27
2010-10-26 October 2010 2010-10-28

Data Records for Wednesday, 27 October 2010

Time	Temp	Chill	HIndex	Humid	Dewpt	 Wind 	HiWind	WindDir	Rain 	Barom 
-----	----	-----	------	-----	-----	------	------	-------	-----	----- 
00:00	53.8	53.8	53.8	84	49.1	1	4	248	0.00	29.633 
00:05	53.6	53.6	53.6	85	49.2	1	4	248	0.00	29.633 
00:10	53.5	53.5	53.5	85	49.1	0	1	248	0.00	29.633 
00:15	53.2	53.2	53.2	86	49.1	0	3	248	0.00	29.640 
00:20	53.2	53.2	53.2	87	49.4	0	4	248	0.00	29.640 
00:25	53.1	53.1	53.1	88	49.6	1	4	248	0.00	29.640 
00:30	53.2	53.2	53.2	88	49.7	2	5	248	0.00	29.645 
00:35	53.1	53.1	53.1	88	49.6	0	3	248	0.00	29.645 
00:40	53.1	53.1	53.1	88	49.6	1	6	248	0.00	29.645 
00:45	53.1	53.1	53.1	88	49.6	0	4	248	0.00	29.641 
00:50	53.1	53.1	53.1	88	49.6	1	5	248	0.00	29.641 
00:55	52.9	52.9	52.9	89	49.7	1	4	248	0.00	29.641 
01:00	53.1	53.1	53.1	89	49.9	1	4	202	0.00	29.643 
01:05	52.9	52.9	52.9	89	49.7	1	3	292	0.00	29.643 
01:10	52.9	52.9	52.9	89	49.7	1	4	248	0.00	29.643 
01:15	52.9	52.9	52.9	90	50.0	1	7	90	0.00	29.643 
01:20	52.9	52.9	52.9	90	50.0	1	4	248	0.00	29.643 
01:25	52.9	52.9	52.9	90	50.0	1	4	248	0.00	29.643 
01:30	52.9	52.9	52.9	90	50.0	2	6	248	0.00	29.643 
01:35	52.9	52.9	52.9	90	50.0	1	4	248	0.00	29.643 
01:40	52.9	52.9	52.9	90	50.0	1	4	248	0.00	29.643 
01:45	52.9	52.9	52.9	89	49.7	1	4	248	0.00	29.645 
01:50	52.9	52.9	52.9	89	49.7	1	10	248	0.00	29.645 
01:55	52.9	52.9	52.9	89	49.7	1	3	270	0.00	29.645 
02:00	52.9	52.9	52.9	89	49.7	2	8	248	0.00	29.646 
02:05	52.9	52.9	52.9	88	49.4	1	4	248	0.00	29.646 
02:10	52.9	52.9	52.9	88	49.4	1	4	248	0.00	29.646 
02:15	52.9	52.9	52.9	88	49.4	1	5	248	0.00	29.645 
02:20	52.9	52.9	52.9	88	49.4	1	4	248	0.00	29.645 
02:25	52.8	52.8	52.8	88	49.3	1	4	315	0.00	29.645 
02:30	52.8	52.8	52.8	88	49.3	1	6	292	0.00	29.640 
02:35	52.8	52.8	52.8	88	49.3	1	5	225	0.00	29.640 
02:40	52.8	52.8	52.8	88	49.3	1	5	248	0.00	29.640 
02:45	52.8	52.8	52.8	88	49.3	1	5	270	0.00	29.646 
02:50	52.8	52.8	52.8	88	49.3	1	6	248	0.00	29.646 
02:55	52.8	52.8	52.8	88	49.3	2	7	248	0.00	29.646 
03:00	52.8	52.8	52.8	88	49.3	1	6	248	0.00	29.649 
03:05	52.6	52.6	52.6	88	49.1	1	6	248	0.00	29.649 
03:10	52.6	52.6	52.6	89	49.4	1	4	248	0.00	29.649 
03:15	52.5	52.5	52.5	89	49.4	1	5	68	0.00	29.650 
03:20	52.3	52.3	52.3	89	49.2	1	5	270	0.00	29.650 
03:25	52.3	52.3	52.3	89	49.2	1	4	248	0.00	29.650 
03:30	52.2	52.2	52.2	89	49.1	1	4	248	0.00	29.647 
03:35	52.2	52.2	52.2	89	49.1	1	6	248	0.00	29.647 
03:40	52.2	52.2	52.2	89	49.1	1	4	225	0.00	29.647 
03:45	52.0	52.0	52.0	89	48.9	1	5	248	0.00	29.646 
03:50	52.0	52.0	52.0	89	48.9	1	4	248	0.00	29.646 
03:55	51.9	51.9	51.9	89	48.8	1	3	248	0.00	29.646 
04:00	51.9	51.9	51.9	89	48.8	1	4	225	0.00	29.646 
04:05	51.9	51.9	51.9	89	48.8	1	5	270	0.00	29.646 
04:10	51.9	51.9	51.9	88	48.5	1	3	68	0.00	29.646 
04:15	51.7	51.7	51.7	88	48.3	1	4	248	0.00	29.648 
04:20	51.7	51.7	51.7	88	48.3	1	3	202	0.00	29.648 
04:25	51.7	51.7	51.7	88	48.3	1	5	292	0.00	29.648 
04:30	51.7	51.7	51.7	87	48.0	1	5	248	0.00	29.653 
04:35	51.9	51.9	51.9	86	47.8	2	7	270	0.00	29.653 
04:40	51.9	51.9	51.9	86	47.8	1	5	225	0.00	29.653 
04:45	51.9	51.9	51.9	85	47.5	1	4	90	0.00	29.650 
04:50	51.7	51.7	51.7	85	47.3	1	6	248	0.00	29.650 
04:55	51.9	51.9	51.9	84	47.2	2	7	225	0.00	29.650 
05:00	51.9	51.9	51.9	84	47.2	1	6	248	0.00	29.653 
05:05	52.0	52.0	52.0	84	47.3	1	3	292	0.00	29.653 
05:10	51.9	51.9	51.9	84	47.2	1	6	248	0.00	29.653 
05:15	51.7	51.7	51.7	84	47.0	1	4	248	0.00	29.656 
05:20	51.6	51.6	51.6	84	46.9	1	5	248	0.00	29.656 
05:25	51.4	51.4	51.4	84	46.7	1	6	270	0.00	29.656 
05:30	51.4	51.4	51.4	84	46.7	1	4	270	0.00	29.657 
05:35	51.3	51.3	51.3	84	46.6	1	4	248	0.00	29.657 
05:40	51.3	51.3	51.3	84	46.6	1	7	248	0.00	29.657 
05:45	51.3	51.3	51.3	85	46.9	1	5	225	0.00	29.659 
05:50	51.3	51.3	51.3	84	46.6	1	5	248	0.00	29.659 
05:55	51.3	51.3	51.3	84	46.6	1	5	248	0.00	29.659 
06:00	51.3	51.3	51.3	84	46.6	1	7	22	0.00	29.661 
06:05	51.3	51.3	51.3	84	46.6	2	6	248	0.00	29.661 
06:10	51.3	51.3	51.3	83	46.3	1	7	225	0.00	29.661 
06:15	51.3	51.3	51.3	83	46.3	0	2	225	0.00	29.664 
06:20	51.3	51.3	51.3	83	46.3	2	7	270	0.00	29.664 
06:25	51.3	51.3	51.3	82	46.0	1	6	248	0.00	29.664 
06:30	51.1	51.1	51.1	82	45.8	1	3	225	0.00	29.667 
06:35	51.0	51.0	51.0	82	45.7	1	4	270	0.00	29.667 
06:40	51.0	51.0	51.0	82	45.7	1	7	45	0.00	29.667 
06:45	51.0	51.0	51.0	81	45.4	1	4	248	0.00	29.665 
06:50	51.0	51.0	51.0	81	45.4	1	3	225	0.00	29.665 
06:55	51.0	51.0	51.0	81	45.4	1	7	248	0.00	29.665 
07:00	51.0	51.0	51.0	81	45.4	1	6	270	0.00	29.668 
07:05	50.8	50.8	50.8	80	44.9	1	3	225	0.00	29.668 
07:10	50.8	50.8	50.8	80	44.9	1	4	248	0.00	29.668 
07:15	50.8	50.8	50.8	80	44.9	2	6	90	0.00	29.672 
07:20	50.8	50.8	50.8	80	44.9	1	3	248	0.00	29.672 
07:25	50.8	50.8	50.8	80	44.9	1	4	45	0.00	29.672 
07:30	50.8	50.8	50.8	79	44.5	1	4	225	0.00	29.668 
07:35	50.7	50.7	50.7	79	44.4	1	2	315	0.00	29.668 
07:40	50.7	50.7	50.7	79	44.4	1	6	248	0.00	29.668 
07:45	50.8	50.8	50.8	78	44.2	1	9	248	0.00	29.669 
07:50	50.8	50.8	50.8	78	44.2	1	4	248	0.00	29.669 
07:55	50.8	50.8	50.8	78	44.2	1	4	248	0.00	29.669 
08:00	50.8	50.8	50.8	77	43.9	1	6	248	0.00	29.672 
08:05	50.8	50.8	50.8	77	43.9	1	5	248	0.00	29.672 
08:10	51.0	51.0	51.0	77	44.0	1	4	248	0.00	29.672 
08:15	51.0	51.0	51.0	76	43.7	1	4	270	0.00	29.675 
08:20	51.1	51.1	51.1	75	43.5	1	5	248	0.00	29.675 
08:25	51.3	51.3	51.3	74	43.3	2	6	248	0.00	29.675 
08:30	51.4	51.4	51.4	74	43.4	2	9	248	0.00	29.683 
08:35	51.6	51.6	51.6	73	43.2	2	9	248	0.00	29.683 
08:40	51.7	51.7	51.7	72	43.0	2	5	225	0.00	29.683 
08:45	51.9	51.9	51.9	72	43.2	1	4	248	0.00	29.686 
08:50	51.9	51.9	51.9	72	43.2	1	5	248	0.00	29.686 
08:55	51.9	51.9	51.9	72	43.2	0	2	248	0.00	29.686 
09:00	52.0	52.0	52.0	71	42.9	1	5	270	0.00	29.695 
09:05	52.2	52.2	52.2	71	43.1	1	3	248	0.00	29.695 
09:10	52.5	52.5	52.5	70	43.0	1	6	270	0.00	29.695 
09:15	52.8	52.8	52.8	69	42.9	1	7	225	0.00	29.697 
09:20	53.2	53.2	53.2	67	42.5	2	4	248	0.00	29.697 
09:25	53.6	53.6	53.6	66	42.5	2	6	248	0.00	29.697 
09:30	54.1	54.1	54.1	65	42.6	2	5	248	0.00	29.699 
09:35	54.5	54.5	54.5	63	42.2	2	6	248	0.00	29.699 
09:40	54.8	54.8	54.8	62	42.0	2	6	248	0.00	29.699 
09:45	55.3	55.3	55.3	61	42.1	2	7	248	0.00	29.705 
09:50	55.6	55.6	55.6	60	41.9	2	11	270	0.00	29.705 
09:55	55.9	55.9	55.9	60	42.2	2	5	248	0.00	29.705 
10:00	56.2	56.2	56.2	59	42.1	2	9	270	0.00	29.703 
10:05	56.5	56.5	56.5	58	41.9	2	6	248	0.00	29.703 
10:10	56.9	56.9	56.9	57	41.8	3	8	270	0.00	29.703 
10:15	57.2	57.2	57.2	55	41.2	3	7	248	0.00	29.705 
10:20	57.5	57.5	57.5	55	41.5	3	9	248	0.00	29.705 
10:25	58.0	58.0	58.0	53	41.0	4	11	225	0.00	29.705 
10:30	58.3	58.3	58.3	53	41.2	3	8	225	0.00	29.698 
10:35	58.7	58.7	58.7	52	41.1	4	11	270	0.00	29.698 
10:40	59.0	59.0	59.0	51	40.9	3	7	248	0.00	29.698 
10:45	59.3	59.3	59.3	50	40.7	3	9	248	0.00	29.700 
10:50	59.8	59.8	59.8	49	40.6	3	10	248	0.00	29.700 
10:55	60.1	60.1	60.1	47	39.8	4	12	270	0.00	29.700 
11:00	60.4	60.4	60.4	47	40.1	4	12	248	0.00	29.696 
11:05	60.5	60.5	60.5	46	39.6	4	10	248	0.00	29.696 
11:10	60.7	60.7	60.7	46	39.8	4	14	248	0.00	29.696 
11:15	60.7	60.7	60.7	46	39.8	5	13	270	0.00	29.693 
11:20	61.0	61.0	61.0	46	40.1	3	9	225	0.00	29.693 
11:25	61.5	61.5	61.5	44	39.4	4	10	248	0.00	29.693 
11:30	61.6	61.6	61.6	45	40.0	3	11	248	0.00	29.692 
11:35	62.0	62.0	62.0	44	39.8	4	8	225	0.00	29.692 
11:40	62.3	62.3	62.3	43	39.5	4	11	248	0.00	29.692 
11:45	62.6	62.6	62.6	43	39.8	3	10	270	0.00	29.692 
11:50	63.2	63.2	63.2	40	38.5	4	12	248	0.00	29.692 
11:55	63.4	63.4	63.4	39	38.0	5	11	248	0.00	29.692 
12:00	63.4	63.4	63.4	39	38.0	4	11	248	0.00	29.691 
12:05	63.7	63.7	63.7	38	37.6	6	14	248	0.00	29.691 
12:10	64.2	64.2	64.2	37	37.4	4	13	270	0.00	29.691 
12:15	64.5	64.5	64.5	36	36.9	6	13	270	0.00	29.691 
12:20	64.5	64.5	64.5	35	36.2	5	15	270	0.00	29.691 
12:25	64.8	64.8	64.8	35	36.5	5	13	248	0.00	29.691 
12:30	64.7	64.7	64.7	35	36.4	7	17	270	0.00	29.691 
12:35	64.8	64.8	64.8	35	36.5	5	17	248	0.00	29.691 
12:40	65.0	65.0	65.0	34	35.9	7	15	270	0.00	29.691 
12:45	65.2	65.2	65.2	34	36.1	6	13	248	0.00	29.688 
12:50	65.3	65.3	65.3	35	36.9	5	13	248	0.00	29.688 
12:55	65.5	65.5	65.5	34	36.4	4	12	270	0.00	29.688 
13:00	65.8	65.8	65.8	34	36.6	6	14	248	0.00	29.687 
13:05	65.8	65.8	65.8	34	36.6	6	13	270	0.00	29.687 
13:10	66.0	66.0	66.0	33	36.1	4	11	270	0.00	29.687 
13:15	66.1	66.1	66.1	33	36.2	5	16	248	0.00	29.683 
13:20	66.4	66.4	66.4	34	37.2	3	10	248	0.00	29.683 
13:25	66.6	66.6	66.6	31	35.0	5	12	248	0.00	29.683 
13:30	66.6	66.6	66.6	31	35.0	8	14	248	0.00	29.674 
13:35	66.6	66.6	66.6	31	35.0	6	14	248	0.00	29.674 
13:40	66.9	66.9	66.9	31	35.3	6	11	270	0.00	29.674 
13:45	67.3	67.3	67.3	31	35.6	5	12	248	0.00	29.668 
13:50	67.4	67.4	67.4	30	34.9	6	16	248	0.00	29.668 
13:55	67.4	67.4	67.4	31	35.7	6	15	248	0.00	29.668 
14:00	67.6	67.6	67.6	31	35.9	5	11	248	0.00	29.662 
14:05	67.6	67.6	67.6	31	35.9	5	14	248	0.00	29.662 
14:10	67.6	67.6	67.6	31	35.9	4	9	248	0.00	29.662 
14:15	67.4	67.4	67.4	31	35.7	4	13	248	0.00	29.658 
14:20	67.6	67.6	67.6	30	35.1	3	12	248	0.00	29.658 
14:25	67.6	67.6	67.6	29	34.2	6	15	248	0.00	29.658 
14:30	67.8	67.8	67.8	29	34.4	4	11	248	0.00	29.657 
14:35	67.6	67.6	67.6	29	34.2	5	11	248	0.00	29.657 
14:40	67.1	67.1	67.1	30	34.6	5	14	270	0.00	29.657 
14:45	66.9	66.9	66.9	28	32.7	5	11	270	0.00	29.663 
14:50	66.9	66.9	66.9	29	33.6	4	10	270	0.00	29.663 
14:55	66.6	66.6	66.6	27	31.6	7	16	248	0.00	29.663 
15:00	66.4	66.4	66.4	28	32.3	7	19	270	0.00	29.664 
15:05	66.3	66.3	66.3	29	33.1	7	15	248	0.00	29.664 
15:10	66.1	66.1	66.1	30	33.8	5	14	270	0.00	29.664 
15:15	66.1	66.1	66.1	29	32.9	5	14	270	0.00	29.665 
15:20	66.1	66.1	66.1	30	33.8	6	13	248	0.00	29.665 
15:25	66.3	66.3	66.3	29	33.1	4	11	248	0.00	29.665 
15:30	66.4	66.4	66.4	28	32.3	4	12	270	0.00	29.671 
15:35	66.6	66.6	66.6	28	32.5	4	13	248	0.00	29.671 
15:40	66.4	66.4	66.4	28	32.3	5	10	270	0.00	29.671 
15:45	66.4	66.4	66.4	27	31.4	4	13	248	0.00	29.679 
15:50	66.6	66.6	66.6	27	31.6	4	13	270	0.00	29.679 
15:55	66.3	66.3	66.3	27	31.3	5	13	248	0.00	29.679 
16:00	66.1	66.1	66.1	26	30.2	6	13	248	0.00	29.678 
16:05	66.1	66.1	66.1	26	30.2	6	13	248	0.00	29.678 
16:10	66.4	66.4	66.4	26	30.5	5	15	270	0.00	29.678 
16:15	66.6	66.6	66.6	25	29.7	5	14	248	0.00	29.675 
16:20	66.3	66.3	66.3	25	29.4	6	14	248	0.00	29.675 
16:25	66.1	66.1	66.1	25	29.3	6	17	248	0.00	29.675 
16:30	66.1	66.1	66.1	25	29.3	4	18	248	0.00	29.672 
16:35	66.3	66.3	66.3	25	29.4	3	11	248	0.00	29.672 
16:40	66.3	66.3	66.3	25	29.4	5	13	248	0.00	29.672 
16:45	66.6	66.6	66.6	25	29.7	5	15	248	0.00	29.673 
16:50	66.6	66.6	66.6	26	30.6	5	14	248	0.00	29.673 
16:55	66.6	66.6	66.6	25	29.7	3	10	248	0.00	29.673 
17:00	66.3	66.3	66.3	25	29.4	5	11	248	0.00	29.685 
17:05	66.1	66.1	66.1	24	28.3	6	14	248	0.00	29.685 
17:10	66.1	66.1	66.1	25	29.3	5	14	248	0.00	29.685 
17:15	66.0	66.0	66.0	24	28.2	6	13	270	0.00	29.692 
17:20	66.0	66.0	66.0	25	29.2	6	15	270	0.00	29.692 
17:25	66.0	66.0	66.0	25	29.2	5	15	270	0.00	29.692 
17:30	65.8	65.8	65.8	26	30.0	5	12	248	0.00	29.692 
17:35	65.8	65.8	65.8	27	30.9	4	10	248	0.00	29.692 
17:40	65.6	65.6	65.6	26	29.8	4	9	248	0.00	29.692 
17:45	65.6	65.6	65.6	27	30.7	3	6	248	0.00	29.694 
17:50	65.5	65.5	65.5	27	30.6	3	9	248	0.00	29.694 
17:55	65.5	65.5	65.5	28	31.5	3	9	248	0.00	29.694 
18:00	65.3	65.3	65.3	28	31.4	4	10	270	0.00	29.695 
18:05	65.2	65.2	65.2	27	30.4	5	13	248	0.00	29.695 
18:10	65.0	65.0	65.0	27	30.2	5	12	248	0.00	29.695 
18:15	64.8	64.8	64.8	27	30.0	4	13	248	0.00	29.694 
18:20	64.7	64.7	64.7	27	29.9	4	12	270	0.00	29.694 
18:25	64.3	64.3	64.3	28	30.5	4	10	248	0.00	29.694 
18:30	64.2	64.2	64.2	28	30.4	5	12	248	0.00	29.693 
18:35	64.0	64.0	64.0	28	30.2	3	7	225	0.00	29.693 
18:40	63.7	63.7	63.7	29	30.8	3	9	248	0.00	29.693 
18:45	63.4	63.4	63.4	28	29.7	3	10	248	0.00	29.689 
18:50	63.4	63.4	63.4	28	29.7	4	12	248	0.00	29.689 
18:55	63.2	63.2	63.2	28	29.6	4	9	248	0.00	29.689 
19:00	63.2	63.2	63.2	28	29.6	4	11	248	0.00	29.698 
19:05	63.2	63.2	63.2	27	28.7	4	13	248	0.00	29.698 
19:10	63.2	63.2	63.2	27	28.7	5	16	248	0.00	29.698 
19:15	63.2	63.2	63.2	28	29.6	3	10	248	0.00	29.708 
19:20	62.9	62.9	62.9	27	28.4	4	9	248	0.00	29.708 
19:25	62.9	62.9	62.9	27	28.4	3	9	248	0.00	29.708 
19:30	62.7	62.7	62.7	27	28.2	3	9	248	0.00	29.712 
19:35	62.6	62.6	62.6	27	28.2	3	12	248	0.00	29.712 
19:40	62.4	62.4	62.4	27	28.0	3	10	248	0.00	29.712 
19:45	62.4	62.4	62.4	27	28.0	4	9	248	0.00	29.715 
19:50	62.4	62.4	62.4	27	28.0	4	10	248	0.00	29.715 
19:55	62.4	62.4	62.4	27	28.0	4	11	248	0.00	29.715 
20:00	62.3	62.3	62.3	27	27.9	4	9	248	0.00	29.723 
20:05	62.1	62.1	62.1	28	28.6	2	5	248	0.00	29.723 
20:10	62.0	62.0	62.0	28	28.5	3	7	248	0.00	29.723 
20:15	62.0	62.0	62.0	28	28.5	3	9	248	0.00	29.722 
20:20	61.8	61.8	61.8	28	28.4	3	7	248	0.00	29.722 
20:25	61.8	61.8	61.8	28	28.4	4	9	248	0.00	29.722 
20:30	61.6	61.6	61.6	28	28.2	3	7	248	0.00	29.724 
20:35	61.5	61.5	61.5	28	28.1	3	8	248	0.00	29.724 
20:40	61.5	61.5	61.5	28	28.1	2	6	248	0.00	29.724 
20:45	61.3	61.3	61.3	27	27.0	4	10	248	0.00	29.730 
20:50	61.3	61.3	61.3	27	27.0	3	7	248	0.00	29.730 
20:55	61.2	61.2	61.2	28	27.8	3	8	248	0.00	29.730 
21:00	61.0	61.0	61.0	28	27.7	2	7	248	0.00	29.732 
21:05	60.9	60.9	60.9	28	27.6	3	9	248	0.00	29.732 
21:10	60.7	60.7	60.7	28	27.4	3	8	248	0.00	29.732 
21:15	60.7	60.7	60.7	28	27.4	4	8	248	0.00	29.729 
21:20	60.5	60.5	60.5	28	27.2	2	5	248	0.00	29.729 
21:25	60.2	60.2	60.2	27	26.1	2	7	270	0.00	29.729 
21:30	59.9	59.9	59.9	28	26.7	2	4	248	0.00	29.731 
21:35	59.9	59.9	59.9	27	25.8	3	6	248	0.00	29.731 
21:40	59.8	59.8	59.8	28	26.6	2	7	248	0.00	29.731 
21:45	59.6	59.6	59.6	28	26.5	2	6	248	0.00	29.733 
21:50	59.5	59.5	59.5	28	26.4	2	5	248	0.00	29.733 
21:55	59.3	59.3	59.3	29	27.1	2	5	248	0.00	29.733 
22:00	59.0	59.0	59.0	31	28.4	2	5	225	0.00	29.734 
22:05	58.9	58.9	58.9	32	29.1	2	5	248	0.00	29.734 
22:10	58.6	58.6	58.6	34	30.3	3	9	248	0.00	29.734 
22:15	58.6	58.6	58.6	34	30.3	2	5	248	0.00	29.734 
22:20	58.4	58.4	58.4	34	30.1	3	10	248	0.00	29.734 
22:25	58.4	58.4	58.4	34	30.1	4	9	248	0.00	29.734 
22:30	58.7	58.7	58.7	33	29.7	4	10	248	0.00	29.735 
22:35	58.7	58.7	58.7	33	29.7	3	7	225	0.00	29.735 
22:40	58.4	58.4	58.4	33	29.4	2	8	225	0.00	29.735 
22:45	58.1	58.1	58.1	34	29.9	2	6	248	0.00	29.738 
22:50	58.0	58.0	58.0	33	29.1	3	7	248	0.00	29.738 
22:55	57.8	57.8	57.8	33	28.9	3	6	248	0.00	29.738 
23:00	57.8	57.8	57.8	34	29.6	2	6	225	0.00	29.747 
23:05	57.5	57.5	57.5	34	29.4	3	9	248	0.00	29.747 
23:10	57.5	57.5	57.5	34	29.4	3	9	248	0.00	29.747 
23:15	57.3	57.3	57.3	33	28.4	3	10	248	0.00	29.753 
23:20	57.3	57.3	57.3	32	27.7	3	10	270	0.00	29.753 
23:25	57.3	57.3	57.3	32	27.7	4	10	270	0.00	29.753 
23:30	57.3	57.3	57.3	32	27.7	3	10	248	0.00	29.756 
23:35	57.0	57.0	57.0	32	27.4	2	7	248	0.00	29.756 
23:40	57.0	57.0	57.0	32	27.4	4	13	270	0.00	29.756 
23:45	57.0	57.0	57.0	33	28.2	5	13	270	0.00	29.759 
23:50	56.9	56.9	56.9	33	28.1	3	9	248	0.00	29.759 
23:55	56.6	56.6	56.6	34	28.6	3	5	270	0.00	29.759 

CoCoRaHS
IN-AL-39
A2 Web Hosting
Creative Commons License
GoDaddy
search engine by freefind advanced

loaded 2018-11-17 13:16:11 • last modified 2010-11-18 10:43:29
Privacy PolicyDisclaimer
• wx.awcolley.com is powered by PmWiki v.2002016 •
• all content (unless otherwise noted) © 2018 A W Colley